Time;durP1;ratioP1;P1;durP2;ratioP2;P2;SDS_P1;SDS_P2;PMS_P1;PMS_P2;Temp;Humidity;BMP_temperature;BMP_pressure;BME280_temperature;BME280_humidity;BME280_pressure;Samples;Min_cycle;Max_cycle;Signal;HPM_P1;HPM_P2
2022/10/11 00:02:39;;;;;;;0.17;0.10;;;;;;;5.72;100.00;102717.94;10628544;27;20066;-76
2022/10/11 00:07:40;;;;;;;0.10;0.10;;;;;;;5.58;100.00;102707.47;10617798;27;20085;-76
2022/10/11 00:12:43;;;;;;;0.20;0.20;;;;;;;5.36;100.00;102716.94;10604145;27;20122;-76
2022/10/11 00:17:44;;;;;;;0.10;0.10;;;;;;;5.50;100.00;102715.47;10610137;27;20134;-77
2022/10/11 00:22:48;;;;;;;0.00;0.00;;;;;;;5.47;100.00;102722.00;10584322;27;20612;-76
2022/10/11 00:27:51;;;;;;;0.00;0.00;;;;;;;5.28;100.00;102723.16;10610982;27;20122;-76
2022/10/11 00:32:53;;;;;;;0.00;0.00;;;;;;;5.12;100.00;102725.28;10625075;27;20118;-76
2022/10/11 00:37:55;;;;;;;0.73;0.15;;;;;;;5.22;100.00;102720.13;10624009;27;20133;-76
2022/10/11 00:42:56;;;;;;;0.10;0.10;;;;;;;5.17;100.00;102714.66;10624610;27;20493;-76
2022/10/11 00:48:03;;;;;;;0.00;0.00;;;;;;;4.92;100.00;102711.84;10585328;27;20074;-76
2022/10/11 00:53:11;;;;;;;0.50;0.20;;;;;;;4.89;100.00;102726.94;10592036;27;20049;-76
2022/10/11 00:58:13;;;;;;;1.17;0.30;;;;;;;4.62;100.00;102731.66;10590952;27;20406;-76
2022/10/11 01:03:32;;;;;;;0.45;0.40;;;;;;;4.78;100.00;102737.97;10601187;27;20047;-76
2022/10/11 01:08:34;;;;;;;0.00;0.00;;;;;;;4.89;100.00;102755.03;10594518;27;20039;-76
2022/10/11 01:20:22;;;;;;;0.50;0.50;;;;;;;4.61;100.00;102757.94;10612640;27;20435;-76
2022/10/11 01:25:48;;;;;;;0.13;0.10;;;;;;;4.70;100.00;102751.03;10623875;27;20086;-75
2022/10/11 01:30:51;;;;;;;0.10;0.10;;;;;;;4.54;100.00;102758.22;10608479;27;20079;-75
2022/10/11 01:35:59;;;;;;;0.00;0.00;;;;;;;4.41;100.00;102762.34;10623258;27;20034;-76
2022/10/11 01:41:12;;;;;;;0.35;0.17;;;;;;;4.61;100.00;102770.72;10623212;27;20049;-76
2022/10/11 01:46:14;;;;;;;0.08;0.08;;;;;;;4.39;100.00;102779.19;10623392;27;20401;-76
2022/10/11 01:51:20;;;;;;;0.00;0.00;;;;;;;4.63;100.00;102786.16;10600576;27;20123;-76
2022/10/11 01:56:41;;;;;;;0.40;0.40;;;;;;;4.16;100.00;102784.06;10614556;28;20127;-76
2022/10/11 02:02:12;;;;;;;0.00;0.00;;;;;;;4.61;100.00;102793.69;10577359;28;20075;-76
2022/10/11 02:07:28;;;;;;;0.22;0.00;;;;;;;4.53;100.00;102797.28;10567556;28;20394;-76
2022/10/11 02:12:37;;;;;;;0.00;0.00;;;;;;;4.42;100.00;102804.97;10622249;28;20039;-76
2022/10/11 02:17:43;;;;;;;0.00;0.00;;;;;;;4.01;100.00;102804.13;10604507;28;20074;-76
2022/10/11 02:22:48;;;;;;;0.95;0.65;;;;;;;4.34;100.00;102800.91;10604363;28;20498;-76
2022/10/11 02:27:53;;;;;;;0.45;0.20;;;;;;;4.41;100.00;102807.38;10619026;28;20382;-75
2022/10/11 02:32:57;;;;;;;0.20;0.20;;;;;;;4.31;100.00;102804.88;10616825;28;20126;-76
2022/10/11 02:38:22;;;;;;;0.22;0.20;;;;;;;4.24;100.00;102808.56;10593167;28;20043;-76
2022/10/11 02:43:40;;;;;;;0.32;0.20;;;;;;;3.81;100.00;102809.34;10592000;27;20397;-75
2022/10/11 02:48:42;;;;;;;0.10;0.10;;;;;;;4.13;100.00;102821.31;10621215;27;20046;-75
2022/10/11 02:53:43;;;;;;;0.63;0.30;;;;;;;3.99;100.00;102816.72;10611151;27;20512;-76
2022/10/11 02:58:45;;;;;;;0.25;0.20;;;;;;;4.09;100.00;102809.06;10630067;27;20121;-76
2022/10/11 03:03:47;;;;;;;0.00;0.00;;;;;;;4.21;100.00;102803.19;10603470;27;20470;-76
2022/10/11 03:08:48;;;;;;;0.22;0.22;;;;;;;4.36;100.00;102818.88;10615118;27;20054;-75
2022/10/11 03:13:50;;;;;;;0.20;0.15;;;;;;;4.28;100.00;102821.69;10608870;27;20490;-75
2022/10/11 03:18:51;;;;;;;0.20;0.20;;;;;;;3.96;100.00;102826.69;10611206;27;20442;-76
2022/10/11 03:23:53;;;;;;;0.30;0.13;;;;;;;4.05;100.00;102830.00;10606831;27;20043;-76
2022/10/11 03:28:54;;;;;;;0.10;0.10;;;;;;;4.10;100.00;102831.28;10604187;27;20042;-76
2022/10/11 03:33:56;;;;;;;0.10;0.10;;;;;;;4.28;100.00;102834.47;10607699;27;20528;-75
2022/10/11 03:38:58;;;;;;;0.52;0.38;;;;;;;4.03;100.00;102838.28;10600976;27;20041;-76
2022/10/11 03:44:00;;;;;;;0.00;0.00;;;;;;;3.97;100.00;102838.66;10625579;27;20071;-76
2022/10/11 03:49:01;;;;;;;0.08;0.08;;;;;;;4.11;100.00;102840.72;10613949;27;20045;-75
2022/10/11 03:54:03;;;;;;;0.80;0.65;;;;;;;4.13;100.00;102841.72;10609324;27;20116;-75
2022/10/11 03:59:05;;;;;;;0.10;0.10;;;;;;;4.14;100.00;102842.63;10627660;27;20046;-75
2022/10/11 04:04:06;;;;;;;0.30;0.25;;;;;;;3.85;100.00;102850.38;10614453;27;20091;-75
2022/10/11 04:09:08;;;;;;;1.25;0.25;;;;;;;3.30;100.00;102855.09;10627392;27;20033;-76
2022/10/11 04:14:09;;;;;;;0.20;0.20;;;;;;;3.31;100.00;102851.78;10608591;27;20069;-76
2022/10/11 04:19:11;;;;;;;0.22;0.10;;;;;;;3.47;100.00;102859.09;10626529;27;20478;-76
2022/10/11 04:24:12;;;;;;;0.03;0.00;;;;;;;3.61;100.00;102867.94;10624064;27;20141;-75
2022/10/11 04:29:14;;;;;;;0.63;0.32;;;;;;;3.53;100.00;102854.50;10612432;27;20482;-76
2022/10/11 04:34:16;;;;;;;0.00;0.00;;;;;;;3.32;100.00;102861.19;10617036;27;20043;-75
2022/10/11 04:39:18;;;;;;;0.32;0.20;;;;;;;3.40;100.00;102862.75;10603461;27;20049;-74
2022/10/11 04:44:19;;;;;;;0.73;0.10;;;;;;;3.34;100.00;102862.22;10597857;27;20043;-76
2022/10/11 04:49:21;;;;;;;0.00;0.00;;;;;;;2.66;100.00;102854.63;10601739;27;20035;-76
2022/10/11 04:54:22;;;;;;;0.15;0.15;;;;;;;2.63;100.00;102861.09;10576440;27;20122;-75
2022/10/11 04:59:24;;;;;;;0.10;0.10;;;;;;;2.57;100.00;102865.66;10591122;27;20051;-75
2022/10/11 05:04:26;;;;;;;0.08;0.08;;;;;;;2.81;100.00;102870.38;10592165;27;20036;-76
2022/10/11 05:09:27;;;;;;;0.00;0.00;;;;;;;2.69;100.00;102876.91;10610493;27;20378;-75
2022/10/11 05:14:29;;;;;;;0.20;0.00;;;;;;;2.49;100.00;102868.41;10620879;27;20051;-75
2022/10/11 05:19:30;;;;;;;0.00;0.00;;;;;;;2.46;100.00;102878.28;10598350;27;20482;-75
2022/10/11 05:24:32;;;;;;;0.15;0.10;;;;;;;2.27;100.00;102879.91;10610624;27;20045;-75
2022/10/11 05:29:34;;;;;;;0.28;0.10;;;;;;;2.45;100.00;102886.66;10606143;27;20494;-76
2022/10/11 05:34:35;;;;;;;0.00;0.00;;;;;;;2.41;100.00;102889.69;10606599;27;20074;-76
2022/10/11 05:39:39;;;;;;;0.00;0.00;;;;;;;2.45;100.00;102885.78;10620325;27;20470;-76
2022/10/11 05:44:40;;;;;;;0.10;0.10;;;;;;;2.39;100.00;102891.19;10610520;27;20114;-76
2022/10/11 05:56:42;;;;;;;0.75;0.17;;;;;;;2.11;100.00;102892.84;10595440;28;20483;-76
2022/10/11 06:01:43;;;;;;;0.00;0.00;;;;;;;2.20;100.00;102909.84;10622915;28;20049;-76
2022/10/11 06:06:45;;;;;;;0.00;0.00;;;;;;;2.21;100.00;102915.84;10592446;28;20078;-76
2022/10/11 06:11:46;;;;;;;0.10;0.10;;;;;;;2.18;100.00;102921.53;10576862;28;20077;-76
2022/10/11 06:16:48;;;;;;;0.20;0.20;;;;;;;2.31;100.00;102915.91;10595130;27;20071;-76
2022/10/11 06:21:50;;;;;;;0.30;0.22;;;;;;;2.34;100.00;102923.84;10610400;27;20086;-75
2022/10/11 06:26:52;;;;;;;0.00;0.00;;;;;;;2.73;100.00;102937.50;10613042;27;20132;-76
2022/10/11 06:31:53;;;;;;;0.03;0.03;;;;;;;3.04;100.00;102944.50;10612534;27;20035;-76
2022/10/11 06:36:55;;;;;;;0.08;0.08;;;;;;;3.56;100.00;102944.00;10617761;27;20044;-76
2022/10/11 06:41:57;;;;;;;0.00;0.00;;;;;;;3.15;100.00;102953.97;10606279;27;20047;-76
2022/10/11 06:46:58;;;;;;;0.15;0.08;;;;;;;3.54;100.00;102952.28;10620513;27;20494;-76
2022/10/11 06:52:00;;;;;;;0.00;0.00;;;;;;;4.20;100.00;102963.03;10622320;27;20039;-76
2022/10/11 06:57:02;;;;;;;0.95;0.25;;;;;;;4.19;100.00;102966.34;10641471;27;20043;-76
2022/10/11 07:02:03;;;;;;;0.00;0.00;;;;;;;4.50;100.00;102965.53;10633224;27;20071;-76
2022/10/11 07:07:05;;;;;;;0.43;0.30;;;;;;;5.06;100.00;102970.97;10628144;27;20527;-76
2022/10/11 07:12:17;;;;;;;0.10;0.03;;;;;;;6.01;100.00;102981.94;10605106;27;20521;-76
2022/10/11 07:17:19;;;;;;;1.15;0.90;;;;;;;6.84;100.00;102992.47;10622256;27;20046;-76
2022/10/11 07:22:21;;;;;;;0.38;0.30;;;;;;;7.31;100.00;102986.50;10607211;27;20044;-76
2022/10/11 07:27:22;;;;;;;2.20;1.02;;;;;;;7.39;100.00;102979.38;10605827;27;20444;-77
2022/10/11 07:32:24;;;;;;;0.32;0.32;;;;;;;8.11;100.00;102978.44;10606084;27;20057;-77
2022/10/11 07:37:25;;;;;;;0.93;0.60;;;;;;;7.48;100.00;102972.34;10617817;27;20071;-77
2022/10/11 07:42:27;;;;;;;0.47;0.35;;;;;;;8.15;100.00;102967.63;10595279;27;20103;-77
2022/10/11 07:47:29;;;;;;;0.55;0.28;;;;;;;8.03;100.00;102962.53;10625114;27;20086;-77
2022/10/11 07:52:30;;;;;;;1.00;0.77;;;;;;;8.45;100.00;102975.63;10624184;27;20469;-77
2022/10/11 07:57:32;;;;;;;0.73;0.47;;;;;;;8.23;100.00;102965.56;10625876;27;20070;-77
2022/10/11 08:02:33;;;;;;;0.73;0.47;;;;;;;8.38;100.00;102978.56;10621317;27;20031;-76
2022/10/11 08:07:36;;;;;;;0.30;0.30;;;;;;;8.90;100.00;102973.50;10620687;27;20043;-77
2022/10/11 08:12:37;;;;;;;0.15;0.15;;;;;;;9.02;100.00;102958.00;10625083;27;20141;-76
2022/10/11 08:17:39;;;;;;;0.95;0.40;;;;;;;9.31;100.00;102947.00;10602549;27;20114;-76
2022/10/11 08:22:40;;;;;;;0.60;0.55;;;;;;;9.39;100.00;102929.50;10592200;27;20058;-78
2022/10/11 08:27:42;;;;;;;0.85;0.50;;;;;;;9.25;100.00;102930.31;10618071;27;20054;-77
2022/10/11 08:32:43;;;;;;;0.93;0.68;;;;;;;9.92;100.00;102940.47;10624359;27;20039;-77
2022/10/11 08:37:45;;;;;;;6.93;0.60;;;;;;;10.24;100.00;102926.09;10596161;27;20044;-77
2022/10/11 08:42:57;;;;;;;0.45;0.25;;;;;;;10.75;100.00;102888.72;10587067;27;20162;-77
2022/10/11 08:48:12;;;;;;;0.75;0.32;;;;;;;10.83;100.00;102867.66;10595141;27;20123;-77
2022/10/11 08:53:43;;;;;;;0.55;0.40;;;;;;;12.09;100.00;102846.84;10622726;27;20031;-77
2022/10/11 08:58:56;;;;;;;1.75;0.68;;;;;;;12.89;100.00;102799.00;10621781;27;20509;-77
2022/10/11 09:03:59;;;;;;;1.05;0.45;;;;;;;12.76;100.00;102784.59;10586472;27;20463;-78
2022/10/11 09:09:21;;;;;;;0.70;0.55;;;;;;;13.82;100.00;102760.81;10603105;27;20119;-77
2022/10/11 09:15:04;;;;;;;2.22;0.65;;;;;;;14.02;100.00;102759.94;10621871;27;20569;-78
2022/10/11 09:20:35;;;;;;;0.75;0.75;;;;;;;14.30;100.00;102747.22;10596942;27;20039;-78
2022/10/11 09:25:51;;;;;;;1.17;0.50;;;;;;;15.08;100.00;102733.78;10574887;27;20482;-78
2022/10/11 09:30:56;;;;;;;1.08;0.43;;;;;;;14.99;100.00;102736.06;10613115;27;20054;-78
2022/10/11 09:35:58;;;;;;;0.93;0.38;;;;;;;15.04;100.00;102737.13;10620637;27;20051;-78
2022/10/11 09:41:20;;;;;;;0.15;0.15;;;;;;;14.95;100.00;102729.88;10602055;27;20134;-78
2022/10/11 09:47:01;;;;;;;2.10;0.80;;;;;;;15.80;100.00;102724.16;10622123;27;20043;-78
2022/10/11 09:52:14;;;;;;;1.17;0.30;;;;;;;15.42;100.00;102724.63;10600143;27;20394;-78
2022/10/11 09:57:22;;;;;;;0.38;0.38;;;;;;;15.91;100.00;102721.94;10598777;28;20039;-78
2022/10/11 10:02:25;;;;;;;0.70;0.28;;;;;;;15.78;100.00;102724.13;10601684;28;20482;-78
2022/10/11 10:07:28;;;;;;;0.55;0.30;;;;;;;16.06;100.00;102730.25;10602098;28;20110;-77
2022/10/11 10:12:30;;;;;;;0.03;0.03;;;;;;;15.52;100.00;102718.94;10620372;28;20390;-78
2022/10/11 10:17:32;;;;;;;0.10;0.10;;;;;;;15.94;100.00;102720.34;10585191;28;20071;-78
2022/10/11 10:22:34;;;;;;;0.10;0.10;;;;;;;16.14;100.00;102718.38;10609865;28;20035;-79
2022/10/11 10:27:36;;;;;;;0.25;0.20;;;;;;;16.42;100.00;102713.16;10600992;28;20568;-78
2022/10/11 10:32:51;;;;;;;1.70;0.35;;;;;;;16.49;100.00;102710.78;10601577;28;20424;-78
2022/10/11 10:38:04;;;;;;;0.00;0.00;;;;;;;17.01;100.00;102710.59;10619847;28;20043;-77
2022/10/11 10:43:14;;;;;;;0.10;0.10;;;;;;;16.90;100.00;102706.75;10619754;28;20043;-78
2022/10/11 10:48:47;;;;;;;3.30;0.25;;;;;;;17.06;100.00;102703.78;10618578;28;20486;-78
2022/10/11 10:54:46;;;;;;;0.25;0.10;;;;;;;16.81;100.00;102697.84;10618518;28;20078;-78
2022/10/11 11:00:14;;;;;;;0.00;0.00;;;;;;;16.74;100.00;102701.09;10610807;28;20077;-78
2022/10/11 11:05:44;;;;;;;0.15;0.08;;;;;;;17.22;100.00;102688.59;10612167;27;20054;-78
2022/10/11 11:11:02;;;;;;;0.00;0.00;;;;;;;16.44;100.00;102691.56;10616719;27;20047;-79
2022/10/11 11:16:14;;;;;;;0.00;0.00;;;;;;;17.88;100.00;102681.56;10627443;27;20043;-78
2022/10/11 11:21:39;;;;;;;0.10;0.10;;;;;;;17.66;100.00;102675.81;10594418;27;20436;-77
2022/10/11 11:27:05;;;;;;;0.65;0.32;;;;;;;17.89;92.19;102672.88;10621961;27;20039;-77
2022/10/11 11:32:20;;;;;;;0.00;0.00;;;;;;;17.94;100.00;102659.97;10599502;27;20062;-77
2022/10/11 11:37:36;;;;;;;0.00;0.00;;;;;;;17.75;88.48;102660.41;10609082;27;20383;-78
2022/10/11 11:42:50;;;;;;;0.57;0.30;;;;;;;17.73;97.19;102656.88;10610858;27;20035;-77
2022/10/11 11:47:59;;;;;;;0.65;0.55;;;;;;;18.33;96.88;102648.69;10585355;27;20138;-77
2022/10/11 11:53:11;;;;;;;0.30;0.30;;;;;;;17.56;91.21;102652.97;10619914;27;20043;-78
2022/10/11 11:58:34;;;;;;;0.10;0.10;;;;;;;17.29;96.90;102639.28;10622410;27;20095;-78
2022/10/11 12:03:54;;;;;;;0.55;0.43;;;;;;;15.85;100.00;102645.56;10604127;27;20043;-77
2022/10/11 12:09:02;;;;;;;0.03;0.03;;;;;;;15.67;100.00;102638.00;10589782;27;20039;-78
2022/10/11 12:14:31;;;;;;;0.40;0.22;;;;;;;15.31;100.00;102642.84;10622941;27;20127;-77
2022/10/11 12:19:34;;;;;;;0.00;0.00;;;;;;;14.80;100.00;102639.38;10596557;27;20475;-78
2022/10/11 12:24:58;;;;;;;0.00;0.00;;;;;;;15.85;100.00;102634.28;10623882;27;20516;-77
2022/10/11 12:29:59;;;;;;;1.35;0.30;;;;;;;16.33;100.00;102627.94;10603746;27;20084;-78
2022/10/11 12:35:29;;;;;;;1.08;0.13;;;;;;;17.58;94.11;102615.66;10620678;27;20126;-77
2022/10/11 12:40:34;;;;;;;2.08;0.60;;;;;;;16.46;94.74;102621.34;10622499;27;20456;-77
2022/10/11 12:45:36;;;;;;;1.67;0.28;;;;;;;16.73;98.92;102613.44;10582874;27;20090;-77
2022/10/11 12:50:51;;;;;;;0.52;0.05;;;;;;;17.39;100.00;102608.25;10609294;27;20114;-77
2022/10/11 12:56:22;;;;;;;0.00;0.00;;;;;;;16.53;100.00;102615.50;10618670;27;20043;-78
2022/10/11 13:01:34;;;;;;;0.00;0.00;;;;;;;16.08;100.00;102609.00;10620183;27;20047;-77
2022/10/11 13:06:46;;;;;;;0.00;0.00;;;;;;;15.93;100.00;102608.53;10609053;27;20050;-77
2022/10/11 13:11:56;;;;;;;2.80;0.68;;;;;;;16.15;98.81;102610.94;10618813;27;20126;-77
2022/10/11 13:17:06;;;;;;;1.85;0.35;;;;;;;16.95;99.34;102591.53;10609740;27;20052;-77
2022/10/11 13:22:22;;;;;;;0.90;0.10;;;;;;;16.77;98.54;102591.00;10617031;27;20045;-77
2022/10/11 13:27:26;;;;;;;0.80;0.70;;;;;;;16.68;98.15;102591.63;10588910;27;20043;-77
2022/10/11 13:32:29;;;;;;;2.17;1.05;;;;;;;16.53;100.00;102586.00;10612792;27;20541;-77
2022/10/11 13:37:41;;;;;;;0.03;0.00;;;;;;;16.25;100.00;102585.22;10615383;27;20406;-77
2022/10/11 13:42:44;;;;;;;0.00;0.00;;;;;;;16.65;100.00;102586.34;10623422;27;20084;-78
2022/10/11 13:47:48;;;;;;;0.30;0.15;;;;;;;17.26;95.85;102581.00;10634881;27;20482;-78
2022/10/11 13:52:59;;;;;;;0.00;0.00;;;;;;;16.99;100.00;102571.66;10633905;27;20099;-78
2022/10/11 13:58:08;;;;;;;0.00;0.00;;;;;;;16.29;100.00;102574.06;10644298;27;20039;-78
2022/10/11 14:03:51;;;;;;;0.00;0.00;;;;;;;15.69;100.00;102576.59;10646038;28;20031;-78
2022/10/11 14:08:55;;;;;;;0.00;0.00;;;;;;;15.29;100.00;102592.59;10606100;28;20070;-78
2022/10/11 14:13:57;;;;;;;0.32;0.10;;;;;;;15.03;100.00;102577.00;10626319;28;20517;-78
2022/10/11 14:18:58;;;;;;;0.10;0.00;;;;;;;15.09;100.00;102578.94;10619488;28;20047;-77
2022/10/11 14:24:09;;;;;;;0.00;0.00;;;;;;;15.23;100.00;102583.75;10600795;28;20044;-77
2022/10/11 14:29:30;;;;;;;0.10;0.10;;;;;;;14.91;100.00;102578.38;10615099;28;20043;-77
2022/10/11 14:34:33;;;;;;;0.47;0.20;;;;;;;14.82;100.00;102580.63;10603143;28;20035;-77
2022/10/11 14:39:35;;;;;;;0.00;0.00;;;;;;;14.88;100.00;102578.25;10621719;27;20043;-76
2022/10/11 14:44:37;;;;;;;0.00;0.00;;;;;;;14.82;100.00;102580.63;10623703;27;20086;-76
2022/10/11 14:49:38;;;;;;;0.00;0.00;;;;;;;14.83;100.00;102582.41;10617289;27;20058;-76
2022/10/11 14:54:40;;;;;;;0.55;0.00;;;;;;;14.97;100.00;102579.41;10608124;27;20041;-77
2022/10/11 14:59:42;;;;;;;0.10;0.00;;;;;;;14.72;100.00;102579.44;10592834;27;20125;-76
2022/10/11 15:04:43;;;;;;;0.10;0.00;;;;;;;14.88;100.00;102570.47;10620018;27;20096;-76
2022/10/11 15:09:45;;;;;;;0.00;0.00;;;;;;;14.88;100.00;102567.88;10620560;27;20043;-76
2022/10/11 15:14:46;;;;;;;0.00;0.00;;;;;;;14.71;100.00;102566.38;10606671;27;20114;-76
2022/10/11 15:19:49;;;;;;;0.00;0.00;;;;;;;14.97;100.00;102563.84;10625195;27;20058;-75
2022/10/11 15:24:51;;;;;;;1.67;0.13;;;;;;;14.74;100.00;102559.59;10605261;27;20143;-76
2022/10/11 15:29:52;;;;;;;0.00;0.00;;;;;;;14.76;100.00;102559.66;10619571;27;20043;-76
2022/10/11 15:34:54;;;;;;;0.00;0.00;;;;;;;14.89;100.00;102559.25;10616846;27;20040;-75
2022/10/11 15:39:55;;;;;;;0.00;0.00;;;;;;;15.05;100.00;102557.19;10618665;27;20047;-76
2022/10/11 15:44:57;;;;;;;0.57;0.10;;;;;;;14.99;100.00;102562.19;10623585;27;20043;-76
2022/10/11 15:49:59;;;;;;;0.00;0.00;;;;;;;14.47;100.00;102556.91;10603727;27;20462;-76
2022/10/11 15:55:02;;;;;;;5.90;0.30;;;;;;;14.69;100.00;102550.78;10623526;27;20513;-76
2022/10/11 16:00:04;;;;;;;2.65;0.30;;;;;;;14.33;100.00;102558.09;10611934;27;20383;-75
2022/10/11 16:05:12;;;;;;;0.63;0.30;;;;;;;14.04;100.00;102545.81;10618161;27;20052;-76
2022/10/11 16:10:13;;;;;;;0.20;0.20;;;;;;;13.96;100.00;102548.09;10620455;27;20585;-76
2022/10/11 16:15:16;;;;;;;0.00;0.00;;;;;;;13.57;100.00;102552.59;10603940;27;20078;-76
2022/10/11 16:20:21;;;;;;;0.00;0.00;;;;;;;13.37;100.00;102556.94;10597729;27;20035;-76
2022/10/11 16:25:23;;;;;;;4.30;1.20;;;;;;;13.11;100.00;102557.63;10603468;27;20448;-75
2022/10/11 16:30:25;;;;;;;0.00;0.00;;;;;;;12.90;100.00;102567.06;10599369;27;20524;-75
2022/10/11 16:35:27;;;;;;;0.00;0.00;;;;;;;12.56;100.00;102576.81;10603470;27;20035;-76
2022/10/11 16:40:33;;;;;;;1.70;0.30;;;;;;;12.19;100.00;102588.06;10611645;27;20043;-76
2022/10/11 16:45:36;;;;;;;0.00;0.00;;;;;;;11.98;100.00;102581.09;10600287;27;20126;-76
2022/10/11 16:50:38;;;;;;;0.00;0.00;;;;;;;11.82;100.00;102591.47;10582444;27;20108;-75
2022/10/11 16:55:40;;;;;;;0.10;0.10;;;;;;;11.47;100.00;102596.69;10620038;27;20070;-76
2022/10/11 17:00:42;;;;;;;0.00;0.00;;;;;;;11.17;100.00;102603.78;10607133;27;20039;-76
2022/10/11 17:05:44;;;;;;;0.55;0.10;;;;;;;11.03;100.00;102611.72;10620725;27;20379;-76
2022/10/11 17:10:54;;;;;;;0.00;0.00;;;;;;;10.63;100.00;102635.41;10617670;27;20084;-76
2022/10/11 17:15:58;;;;;;;1.33;0.15;;;;;;;10.48;100.00;102638.94;10619275;27;20133;-76
2022/10/11 17:21:04;;;;;;;0.20;0.20;;;;;;;10.33;100.00;102638.06;10600550;27;20122;-77
2022/10/11 17:26:08;;;;;;;0.28;0.28;;;;;;;10.27;100.00;102630.91;10619940;27;20273;-77
2022/10/11 17:31:12;;;;;;;0.30;0.30;;;;;;;10.06;100.00;102628.00;10620477;27;20122;-76
2022/10/11 17:36:22;;;;;;;0.00;0.00;;;;;;;9.93;100.00;102631.59;10617918;27;20506;-77
2022/10/11 17:41:26;;;;;;;0.00;0.00;;;;;;;9.76;100.00;102647.75;10617961;27;20498;-76
2022/10/11 17:46:35;;;;;;;0.00;0.00;;;;;;;9.63;100.00;102647.06;10623092;27;20099;-77
2022/10/11 17:51:38;;;;;;;0.57;0.20;;;;;;;9.18;100.00;102667.59;10622376;27;20076;-76
2022/10/11 17:56:40;;;;;;;0.00;0.00;;;;;;;8.93;100.00;102695.19;10620794;27;20393;-77
2022/10/11 18:01:42;;;;;;;0.00;0.00;;;;;;;8.64;100.00;102707.97;10618170;28;20043;-76
2022/10/11 18:06:45;;;;;;;0.25;0.20;;;;;;;8.35;100.00;102718.97;10598751;28;20041;-76
2022/10/11 18:11:47;;;;;;;0.32;0.10;;;;;;;8.57;100.00;102777.75;10620979;27;20045;-75
2022/10/11 18:16:49;;;;;;;0.05;0.05;;;;;;;7.82;100.00;102796.78;10609280;27;20542;-76
2022/10/11 18:21:57;;;;;;;0.00;0.00;;;;;;;8.08;100.00;102816.50;10624452;27;20122;-76
2022/10/11 18:27:04;;;;;;;0.00;0.00;;;;;;;8.16;100.00;102799.91;10608711;27;20071;-75
2022/10/11 18:32:06;;;;;;;0.00;0.00;;;;;;;7.92;100.00;102794.97;10625168;27;20037;-76
2022/10/11 18:37:07;;;;;;;0.00;0.00;;;;;;;7.68;100.00;102803.53;10625118;27;20031;-75
2022/10/11 18:42:09;;;;;;;0.95;0.68;;;;;;;7.58;100.00;102810.59;10626209;27;20393;-75
2022/10/11 18:47:11;;;;;;;0.47;0.20;;;;;;;7.87;100.00;102811.69;10624827;27;20130;-75
2022/10/11 18:52:12;;;;;;;1.75;0.35;;;;;;;7.60;100.00;102809.03;10626823;27;20080;-75
2022/10/11 18:57:14;;;;;;;0.00;0.00;;;;;;;7.02;100.00;102818.66;10626053;27;20054;-75
2022/10/11 19:02:15;;;;;;;0.10;0.10;;;;;;;7.34;100.00;102831.97;10626348;27;20043;-76
2022/10/11 19:07:18;;;;;;;0.38;0.13;;;;;;;7.39;100.00;102831.50;10627175;27;20039;-76
2022/10/11 19:12:20;;;;;;;0.35;0.05;;;;;;;7.32;100.00;102825.88;10625706;27;20511;-76
2022/10/11 19:17:22;;;;;;;0.38;0.10;;;;;;;7.21;100.00;102820.88;10626358;27;20039;-77
2022/10/11 19:22:23;;;;;;;0.00;0.00;;;;;;;7.15;100.00;102812.75;10620881;27;20138;-77
2022/10/11 19:27:25;;;;;;;0.95;0.55;;;;;;;6.89;100.00;102821.13;10625481;27;20781;-76
2022/10/11 19:32:44;;;;;;;0.17;0.17;;;;;;;6.63;100.00;102828.72;10606226;27;20117;-76
2022/10/11 19:37:58;;;;;;;0.00;0.00;;;;;;;6.62;100.00;102832.06;10625022;27;20043;-76
2022/10/11 19:43:00;;;;;;;0.20;0.20;;;;;;;6.50;100.00;102841.41;10605219;27;20103;-75
2022/10/11 19:48:01;;;;;;;0.52;0.30;;;;;;;6.55;100.00;102832.38;10604804;27;20082;-76
2022/10/11 19:53:03;;;;;;;0.93;0.35;;;;;;;6.61;100.00;102825.16;10624947;27;20114;-76
2022/10/11 19:58:05;;;;;;;0.00;0.00;;;;;;;6.47;100.00;102825.81;10624260;27;20051;-76
2022/10/11 20:03:08;;;;;;;0.30;0.20;;;;;;;6.55;100.00;102814.47;10606914;27;20039;-76
2022/10/11 20:08:10;;;;;;;0.00;0.00;;;;;;;6.13;100.00;102833.56;10602270;27;20053;-76
2022/10/11 20:13:11;;;;;;;0.20;0.20;;;;;;;6.18;100.00;102824.53;10621158;27;20444;-76
2022/10/11 20:18:13;;;;;;;0.00;0.00;;;;;;;6.05;100.00;102826.97;10604764;27;20478;-76
2022/10/11 20:23:14;;;;;;;0.10;0.10;;;;;;;5.87;100.00;102825.66;10623501;27;20389;-77
2022/10/11 20:28:18;;;;;;;0.52;0.20;;;;;;;5.91;100.00;102831.91;10601822;27;20089;-76
2022/10/11 20:33:20;;;;;;;0.10;0.10;;;;;;;5.86;100.00;102838.31;10622378;27;20042;-76
2022/10/11 20:38:21;;;;;;;2.75;1.38;;;;;;;5.69;100.00;102837.03;10619680;27;20069;-76
2022/10/11 20:43:23;;;;;;;0.38;0.38;;;;;;;5.43;100.00;102830.81;10623102;27;20046;-76
2022/10/11 20:48:25;;;;;;;0.10;0.10;;;;;;;5.62;100.00;102835.66;10622158;27;20047;-76
2022/10/11 20:53:29;;;;;;;0.03;0.03;;;;;;;5.58;100.00;102836.19;10622931;27;20039;-76
2022/10/11 20:58:30;;;;;;;0.47;0.28;;;;;;;5.47;100.00;102837.94;10630009;27;20104;-76
2022/10/11 21:03:32;;;;;;;1.88;0.95;;;;;;;5.49;100.00;102840.59;10639752;27;20551;-76
2022/10/11 21:08:35;;;;;;;0.32;0.30;;;;;;;5.47;100.00;102831.94;10628738;27;20073;-76
2022/10/11 21:13:37;;;;;;;0.28;0.28;;;;;;;5.35;100.00;102840.41;10623048;27;20067;-76
2022/10/11 21:18:39;;;;;;;2.13;1.85;;;;;;;5.06;100.00;102833.03;10622399;27;20085;-76
2022/10/11 21:23:40;;;;;;;0.38;0.32;;;;;;;5.29;100.00;102828.84;10619687;27;20043;-76
2022/10/11 21:28:43;;;;;;;0.00;0.00;;;;;;;5.17;100.00;102831.31;10612831;27;20130;-76
2022/10/11 21:33:45;;;;;;;2.47;1.88;;;;;;;5.03;100.00;102828.53;10597134;27;20039;-76
2022/10/11 21:38:48;;;;;;;0.10;0.10;;;;;;;5.01;100.00;102841.97;10590809;27;20043;-76
2022/10/11 21:43:50;;;;;;;0.20;0.20;;;;;;;4.63;100.00;102850.88;10603084;27;20045;-75
2022/10/11 21:48:52;;;;;;;1.67;0.28;;;;;;;4.70;100.00;102842.94;10615726;27;20486;-75
2022/10/11 21:53:55;;;;;;;0.32;0.20;;;;;;;4.70;100.00;102850.63;10615829;27;20501;-76
2022/10/11 21:58:56;;;;;;;0.17;0.10;;;;;;;4.63;100.00;102844.88;10621649;27;20047;-76
2022/10/11 22:03:58;;;;;;;0.22;0.20;;;;;;;4.61;100.00;102854.97;10621527;27;20100;-76
2022/10/11 22:08:59;;;;;;;0.80;0.57;;;;;;;4.54;100.00;102847.56;10621606;28;20073;-76
2022/10/11 22:14:02;;;;;;;0.00;0.00;;;;;;;4.55;100.00;102841.69;10621911;28;20039;-76
2022/10/11 22:19:03;;;;;;;0.30;0.30;;;;;;;4.30;100.00;102834.56;10621711;28;20055;-76
2022/10/11 22:24:05;;;;;;;0.10;0.10;;;;;;;4.41;100.00;102838.91;10602881;28;20043;-76
2022/10/11 22:29:07;;;;;;;0.10;0.08;;;;;;;4.07;100.00;102830.13;10613962;28;20088;-77
2022/10/11 22:34:08;;;;;;;0.45;0.25;;;;;;;4.05;100.00;102832.56;10603437;28;20039;-76
2022/10/11 22:39:10;;;;;;;0.20;0.20;;;;;;;4.04;100.00;102837.50;10621275;28;20078;-77
2022/10/11 22:44:12;;;;;;;0.20;0.20;;;;;;;3.99;100.00;102841.34;10629106;27;20093;-76
2022/10/11 22:49:13;;;;;;;0.43;0.43;;;;;;;3.73;100.00;102838.38;10622331;27;20051;-77
2022/10/11 22:54:15;;;;;;;0.20;0.20;;;;;;;3.47;100.00;102839.59;10620913;28;20541;-77
2022/10/11 22:59:16;;;;;;;0.20;0.20;;;;;;;3.81;100.00;102842.47;10604793;27;20169;-76
2022/10/11 23:04:19;;;;;;;0.10;0.10;;;;;;;3.83;100.00;102839.16;10628525;27;20046;-76
2022/10/11 23:09:21;;;;;;;0.05;0.03;;;;;;;3.63;100.00;102830.69;10614436;27;20077;-76
2022/10/11 23:14:22;;;;;;;0.22;0.13;;;;;;;3.78;100.00;102836.22;10610267;27;20037;-76
2022/10/11 23:19:24;;;;;;;0.52;0.40;;;;;;;3.63;100.00;102829.06;10627841;27;20082;-76
2022/10/11 23:24:25;;;;;;;0.28;0.28;;;;;;;3.51;100.00;102830.53;10626809;27;20031;-76
2022/10/11 23:29:30;;;;;;;0.63;0.63;;;;;;;3.54;100.00;102827.41;10627438;27;20409;-76
2022/10/11 23:34:32;;;;;;;1.00;0.63;;;;;;;3.61;100.00;102824.59;10609219;27;20127;-75